sensor_id;sensor_type;location;lat;lon;timestamp;P1;durP1;ratioP1;P2;durP2;ratioP2
39356;SDS011;25077;50.302;18.996;2022-07-06T00:00:01;24.50;;;15.80;;
39356;SDS011;25077;50.302;18.996;2022-07-06T00:03:05;23.83;;;15.83;;
39356;SDS011;25077;50.302;18.996;2022-07-06T00:06:07;23.37;;;15.20;;
39356;SDS011;25077;50.302;18.996;2022-07-06T00:09:10;21.13;;;14.90;;
39356;SDS011;25077;50.302;18.996;2022-07-06T00:12:13;20.97;;;15.00;;
39356;SDS011;25077;50.302;18.996;2022-07-06T00:15:15;21.80;;;16.13;;
39356;SDS011;25077;50.302;18.996;2022-07-06T00:18:17;20.13;;;14.73;;
39356;SDS011;25077;50.302;18.996;2022-07-06T00:21:19;21.37;;;14.63;;
39356;SDS011;25077;50.302;18.996;2022-07-06T00:24:22;19.57;;;13.30;;
39356;SDS011;25077;50.302;18.996;2022-07-06T00:27:24;17.80;;;13.07;;
39356;SDS011;25077;50.302;18.996;2022-07-06T00:30:26;19.43;;;14.40;;
39356;SDS011;25077;50.302;18.996;2022-07-06T00:33:29;20.03;;;14.37;;
39356;SDS011;25077;50.302;18.996;2022-07-06T00:36:31;18.97;;;14.47;;
39356;SDS011;25077;50.302;18.996;2022-07-06T00:39:34;19.10;;;14.97;;
39356;SDS011;25077;50.302;18.996;2022-07-06T00:42:40;20.67;;;15.80;;
39356;SDS011;25077;50.302;18.996;2022-07-06T00:45:42;21.37;;;15.47;;
39356;SDS011;25077;50.302;18.996;2022-07-06T00:48:45;21.47;;;15.60;;
39356;SDS011;25077;50.302;18.996;2022-07-06T00:51:47;27.50;;;15.63;;
39356;SDS011;25077;50.302;18.996;2022-07-06T00:54:50;22.77;;;16.83;;
39356;SDS011;25077;50.302;18.996;2022-07-06T00:57:53;23.40;;;17.77;;
39356;SDS011;25077;50.302;18.996;2022-07-06T01:00:56;22.90;;;17.47;;
39356;SDS011;25077;50.302;18.996;2022-07-06T01:03:58;26.00;;;17.97;;
39356;SDS011;25077;50.302;18.996;2022-07-06T01:07:00;26.87;;;18.83;;
39356;SDS011;25077;50.302;18.996;2022-07-06T01:10:04;28.70;;;18.97;;
39356;SDS011;25077;50.302;18.996;2022-07-06T01:13:08;28.90;;;19.47;;
39356;SDS011;25077;50.302;18.996;2022-07-06T01:16:10;25.33;;;19.10;;
39356;SDS011;25077;50.302;18.996;2022-07-06T01:19:13;25.70;;;19.13;;
39356;SDS011;25077;50.302;18.996;2022-07-06T01:22:16;20.97;;;17.70;;
39356;SDS011;25077;50.302;18.996;2022-07-06T01:25:19;23.70;;;18.33;;
39356;SDS011;25077;50.302;18.996;2022-07-06T01:28:22;21.47;;;16.73;;
39356;SDS011;25077;50.302;18.996;2022-07-06T01:31:24;21.60;;;16.47;;
39356;SDS011;25077;50.302;18.996;2022-07-06T01:34:27;23.47;;;16.47;;
39356;SDS011;25077;50.302;18.996;2022-07-06T01:37:31;24.90;;;16.17;;
39356;SDS011;25077;50.302;18.996;2022-07-06T01:40:33;22.73;;;16.23;;
39356;SDS011;25077;50.302;18.996;2022-07-06T01:43:35;25.67;;;15.70;;
39356;SDS011;25077;50.302;18.996;2022-07-06T01:46:37;26.80;;;16.03;;
39356;SDS011;25077;50.302;18.996;2022-07-06T01:49:42;22.40;;;15.63;;
39356;SDS011;25077;50.302;18.996;2022-07-06T01:52:46;23.37;;;15.67;;
39356;SDS011;25077;50.302;18.996;2022-07-06T01:55:48;23.27;;;15.40;;
39356;SDS011;25077;50.302;18.996;2022-07-06T01:58:51;26.57;;;15.27;;
39356;SDS011;25077;50.302;18.996;2022-07-06T02:01:53;23.73;;;14.37;;
39356;SDS011;25077;50.302;18.996;2022-07-06T02:04:55;21.03;;;13.90;;
39356;SDS011;25077;50.302;18.996;2022-07-06T02:07:58;22.50;;;14.20;;
39356;SDS011;25077;50.302;18.996;2022-07-06T02:11:01;22.63;;;13.70;;
39356;SDS011;25077;50.302;18.996;2022-07-06T02:14:04;20.90;;;14.03;;
39356;SDS011;25077;50.302;18.996;2022-07-06T02:17:06;20.40;;;12.67;;
39356;SDS011;25077;50.302;18.996;2022-07-06T02:20:09;16.93;;;12.07;;
39356;SDS011;25077;50.302;18.996;2022-07-06T02:23:13;24.33;;;12.70;;
39356;SDS011;25077;50.302;18.996;2022-07-06T02:26:16;17.77;;;11.17;;
39356;SDS011;25077;50.302;18.996;2022-07-06T02:29:19;18.63;;;11.03;;
39356;SDS011;25077;50.302;18.996;2022-07-06T02:32:22;15.17;;;11.33;;
39356;SDS011;25077;50.302;18.996;2022-07-06T02:35:24;15.97;;;10.10;;
39356;SDS011;25077;50.302;18.996;2022-07-06T02:38:28;17.00;;;10.40;;
39356;SDS011;25077;50.302;18.996;2022-07-06T02:41:31;15.33;;;10.57;;
39356;SDS011;25077;50.302;18.996;2022-07-06T02:44:33;13.23;;;10.60;;
39356;SDS011;25077;50.302;18.996;2022-07-06T02:47:35;18.37;;;10.70;;
39356;SDS011;25077;50.302;18.996;2022-07-06T02:50:38;13.00;;;9.83;;
39356;SDS011;25077;50.302;18.996;2022-07-06T02:53:41;15.17;;;10.00;;
39356;SDS011;25077;50.302;18.996;2022-07-06T02:56:43;17.57;;;9.93;;
39356;SDS011;25077;50.302;18.996;2022-07-06T02:59:51;18.03;;;10.23;;
39356;SDS011;25077;50.302;18.996;2022-07-06T03:02:53;13.33;;;10.10;;
39356;SDS011;25077;50.302;18.996;2022-07-06T03:05:57;14.43;;;10.10;;
39356;SDS011;25077;50.302;18.996;2022-07-06T03:09:00;14.00;;;9.57;;
39356;SDS011;25077;50.302;18.996;2022-07-06T03:12:03;12.60;;;9.90;;
39356;SDS011;25077;50.302;18.996;2022-07-06T03:15:08;12.17;;;10.33;;
39356;SDS011;25077;50.302;18.996;2022-07-06T03:18:14;17.07;;;11.10;;
39356;SDS011;25077;50.302;18.996;2022-07-06T03:21:16;14.57;;;10.17;;
39356;SDS011;25077;50.302;18.996;2022-07-06T03:24:20;15.27;;;10.23;;
39356;SDS011;25077;50.302;18.996;2022-07-06T03:27:22;11.47;;;10.00;;
39356;SDS011;25077;50.302;18.996;2022-07-06T03:30:24;13.20;;;10.03;;
39356;SDS011;25077;50.302;18.996;2022-07-06T03:33:29;16.27;;;10.80;;
39356;SDS011;25077;50.302;18.996;2022-07-06T03:36:31;16.80;;;10.70;;
39356;SDS011;25077;50.302;18.996;2022-07-06T03:39:35;14.27;;;10.73;;
39356;SDS011;25077;50.302;18.996;2022-07-06T03:42:38;13.20;;;9.90;;
39356;SDS011;25077;50.302;18.996;2022-07-06T03:45:43;16.87;;;10.33;;
39356;SDS011;25077;50.302;18.996;2022-07-06T03:48:45;14.60;;;9.20;;
39356;SDS011;25077;50.302;18.996;2022-07-06T03:51:47;16.80;;;10.90;;
39356;SDS011;25077;50.302;18.996;2022-07-06T03:54:50;14.43;;;10.47;;
39356;SDS011;25077;50.302;18.996;2022-07-06T03:57:58;14.10;;;10.17;;
39356;SDS011;25077;50.302;18.996;2022-07-06T04:01:01;18.93;;;10.37;;
39356;SDS011;25077;50.302;18.996;2022-07-06T04:04:03;16.17;;;10.70;;
39356;SDS011;25077;50.302;18.996;2022-07-06T04:07:06;25.20;;;12.17;;
39356;SDS011;25077;50.302;18.996;2022-07-06T04:10:10;14.73;;;12.67;;
39356;SDS011;25077;50.302;18.996;2022-07-06T04:13:12;19.60;;;13.77;;
39356;SDS011;25077;50.302;18.996;2022-07-06T04:16:15;20.60;;;12.67;;
39356;SDS011;25077;50.302;18.996;2022-07-06T04:19:17;19.13;;;12.77;;
39356;SDS011;25077;50.302;18.996;2022-07-06T04:22:19;14.50;;;11.77;;
39356;SDS011;25077;50.302;18.996;2022-07-06T04:25:23;14.07;;;10.07;;
39356;SDS011;25077;50.302;18.996;2022-07-06T04:28:26;14.87;;;11.00;;
39356;SDS011;25077;50.302;18.996;2022-07-06T04:31:28;15.43;;;11.83;;
39356;SDS011;25077;50.302;18.996;2022-07-06T04:34:30;14.87;;;11.03;;
39356;SDS011;25077;50.302;18.996;2022-07-06T04:37:32;14.50;;;11.37;;
39356;SDS011;25077;50.302;18.996;2022-07-06T04:40:35;15.50;;;12.07;;
39356;SDS011;25077;50.302;18.996;2022-07-06T04:43:42;14.57;;;11.97;;
39356;SDS011;25077;50.302;18.996;2022-07-06T04:46:47;18.53;;;11.87;;
39356;SDS011;25077;50.302;18.996;2022-07-06T04:49:50;15.73;;;12.00;;
39356;SDS011;25077;50.302;18.996;2022-07-06T04:52:52;21.57;;;14.90;;
39356;SDS011;25077;50.302;18.996;2022-07-06T04:55:56;20.70;;;13.40;;
39356;SDS011;25077;50.302;18.996;2022-07-06T04:59:00;23.50;;;16.67;;
39356;SDS011;25077;50.302;18.996;2022-07-06T05:02:02;28.57;;;19.53;;
39356;SDS011;25077;50.302;18.996;2022-07-06T05:05:05;26.60;;;19.00;;
39356;SDS011;25077;50.302;18.996;2022-07-06T05:08:10;29.33;;;19.70;;
39356;SDS011;25077;50.302;18.996;2022-07-06T05:11:14;26.53;;;19.50;;
39356;SDS011;25077;50.302;18.996;2022-07-06T05:14:16;28.13;;;20.20;;
39356;SDS011;25077;50.302;18.996;2022-07-06T05:17:20;30.60;;;22.80;;
39356;SDS011;25077;50.302;18.996;2022-07-06T05:20:22;33.63;;;23.03;;
39356;SDS011;25077;50.302;18.996;2022-07-06T05:23:24;31.43;;;21.23;;
39356;SDS011;25077;50.302;18.996;2022-07-06T05:26:30;32.97;;;23.03;;
39356;SDS011;25077;50.302;18.996;2022-07-06T05:29:33;31.40;;;23.20;;
39356;SDS011;25077;50.302;18.996;2022-07-06T05:32:35;30.63;;;21.70;;
39356;SDS011;25077;50.302;18.996;2022-07-06T05:35:37;33.13;;;22.40;;
39356;SDS011;25077;50.302;18.996;2022-07-06T05:38:40;30.20;;;23.83;;
39356;SDS011;25077;50.302;18.996;2022-07-06T05:41:44;27.47;;;21.90;;
39356;SDS011;25077;50.302;18.996;2022-07-06T05:44:47;20.70;;;16.80;;
39356;SDS011;25077;50.302;18.996;2022-07-06T05:47:49;22.77;;;18.03;;
39356;SDS011;25077;50.302;18.996;2022-07-06T05:51:10;28.17;;;20.37;;
39356;SDS011;25077;50.302;18.996;2022-07-06T05:54:14;22.03;;;17.70;;
39356;SDS011;25077;50.302;18.996;2022-07-06T05:57:18;19.87;;;14.07;;
39356;SDS011;25077;50.302;18.996;2022-07-06T06:00:20;23.77;;;18.17;;
39356;SDS011;25077;50.302;18.996;2022-07-06T06:03:27;21.00;;;16.43;;
39356;SDS011;25077;50.302;18.996;2022-07-06T06:06:29;23.67;;;17.07;;
39356;SDS011;25077;50.302;18.996;2022-07-06T06:09:33;25.17;;;20.10;;
39356;SDS011;25077;50.302;18.996;2022-07-06T06:12:36;25.40;;;19.83;;
39356;SDS011;25077;50.302;18.996;2022-07-06T06:15:39;33.87;;;24.70;;
39356;SDS011;25077;50.302;18.996;2022-07-06T06:18:41;34.17;;;24.70;;
39356;SDS011;25077;50.302;18.996;2022-07-06T06:21:43;31.73;;;22.13;;
39356;SDS011;25077;50.302;18.996;2022-07-06T06:24:45;22.63;;;14.90;;
39356;SDS011;25077;50.302;18.996;2022-07-06T06:27:48;25.10;;;16.50;;
39356;SDS011;25077;50.302;18.996;2022-07-06T06:30:50;23.40;;;18.03;;
39356;SDS011;25077;50.302;18.996;2022-07-06T06:33:52;30.37;;;20.87;;
39356;SDS011;25077;50.302;18.996;2022-07-06T06:36:54;29.93;;;21.30;;
39356;SDS011;25077;50.302;18.996;2022-07-06T06:39:56;32.70;;;21.53;;
39356;SDS011;25077;50.302;18.996;2022-07-06T06:43:00;27.90;;;19.83;;
39356;SDS011;25077;50.302;18.996;2022-07-06T06:46:04;15.63;;;12.10;;
39356;SDS011;25077;50.302;18.996;2022-07-06T06:49:06;16.10;;;11.50;;
39356;SDS011;25077;50.302;18.996;2022-07-06T06:52:08;19.37;;;11.67;;
39356;SDS011;25077;50.302;18.996;2022-07-06T06:55:09;11.27;;;9.23;;
39356;SDS011;25077;50.302;18.996;2022-07-06T06:58:13;11.13;;;9.13;;
39356;SDS011;25077;50.302;18.996;2022-07-06T07:01:15;14.83;;;8.60;;
39356;SDS011;25077;50.302;18.996;2022-07-06T07:04:17;13.93;;;9.17;;
39356;SDS011;25077;50.302;18.996;2022-07-06T07:07:19;21.23;;;16.20;;
39356;SDS011;25077;50.302;18.996;2022-07-06T07:10:21;19.43;;;16.10;;
39356;SDS011;25077;50.302;18.996;2022-07-06T07:13:24;18.00;;;14.57;;
39356;SDS011;25077;50.302;18.996;2022-07-06T07:16:26;12.27;;;10.67;;
39356;SDS011;25077;50.302;18.996;2022-07-06T07:19:28;19.43;;;13.43;;
39356;SDS011;25077;50.302;18.996;2022-07-06T07:22:30;13.00;;;9.87;;
39356;SDS011;25077;50.302;18.996;2022-07-06T07:25:32;20.00;;;13.27;;
39356;SDS011;25077;50.302;18.996;2022-07-06T07:28:36;25.37;;;15.33;;
39356;SDS011;25077;50.302;18.996;2022-07-06T07:31:38;15.00;;;10.23;;
39356;SDS011;25077;50.302;18.996;2022-07-06T07:34:40;11.57;;;8.87;;
39356;SDS011;25077;50.302;18.996;2022-07-06T07:37:42;14.97;;;10.20;;
39356;SDS011;25077;50.302;18.996;2022-07-06T07:40:43;14.87;;;9.90;;
39356;SDS011;25077;50.302;18.996;2022-07-06T07:43:47;14.67;;;9.53;;
39356;SDS011;25077;50.302;18.996;2022-07-06T07:46:49;17.37;;;9.67;;
39356;SDS011;25077;50.302;18.996;2022-07-06T07:49:52;9.17;;;7.23;;
39356;SDS011;25077;50.302;18.996;2022-07-06T07:52:54;9.30;;;6.77;;
39356;SDS011;25077;50.302;18.996;2022-07-06T07:55:56;11.20;;;6.70;;
39356;SDS011;25077;50.302;18.996;2022-07-06T07:58:59;8.07;;;6.60;;
39356;SDS011;25077;50.302;18.996;2022-07-06T08:02:04;5.53;;;5.03;;
39356;SDS011;25077;50.302;18.996;2022-07-06T08:05:07;6.33;;;4.47;;
39356;SDS011;25077;50.302;18.996;2022-07-06T08:08:13;4.30;;;3.37;;
39356;SDS011;25077;50.302;18.996;2022-07-06T08:11:15;3.97;;;3.10;;
39356;SDS011;25077;50.302;18.996;2022-07-06T08:14:18;10.17;;;3.50;;
39356;SDS011;25077;50.302;18.996;2022-07-06T08:17:20;4.47;;;3.60;;
39356;SDS011;25077;50.302;18.996;2022-07-06T08:20:22;7.40;;;3.27;;
39356;SDS011;25077;50.302;18.996;2022-07-06T08:23:24;6.57;;;3.20;;
39356;SDS011;25077;50.302;18.996;2022-07-06T08:26:26;3.63;;;2.00;;
39356;SDS011;25077;50.302;18.996;2022-07-06T08:29:30;2.53;;;1.70;;
39356;SDS011;25077;50.302;18.996;2022-07-06T08:32:32;6.30;;;1.93;;
39356;SDS011;25077;50.302;18.996;2022-07-06T08:35:37;2.77;;;1.80;;
39356;SDS011;25077;50.302;18.996;2022-07-06T08:38:39;4.27;;;1.50;;
39356;SDS011;25077;50.302;18.996;2022-07-06T08:41:42;1.77;;;1.50;;
39356;SDS011;25077;50.302;18.996;2022-07-06T08:44:49;2.63;;;1.53;;
39356;SDS011;25077;50.302;18.996;2022-07-06T08:47:54;11.70;;;1.87;;
39356;SDS011;25077;50.302;18.996;2022-07-06T08:50:59;1.80;;;1.43;;
39356;SDS011;25077;50.302;18.996;2022-07-06T08:54:02;3.30;;;1.13;;
39356;SDS011;25077;50.302;18.996;2022-07-06T08:57:04;2.83;;;1.30;;
39356;SDS011;25077;50.302;18.996;2022-07-06T09:00:09;1.43;;;1.20;;
39356;SDS011;25077;50.302;18.996;2022-07-06T09:03:12;4.23;;;1.50;;
39356;SDS011;25077;50.302;18.996;2022-07-06T09:06:14;5.00;;;1.80;;
39356;SDS011;25077;50.302;18.996;2022-07-06T09:09:22;2.43;;;1.60;;
39356;SDS011;25077;50.302;18.996;2022-07-06T09:12:26;4.93;;;1.40;;
39356;SDS011;25077;50.302;18.996;2022-07-06T09:15:30;2.47;;;1.63;;
39356;SDS011;25077;50.302;18.996;2022-07-06T09:18:35;1.63;;;1.20;;
39356;SDS011;25077;50.302;18.996;2022-07-06T09:21:38;1.30;;;1.20;;
39356;SDS011;25077;50.302;18.996;2022-07-06T09:24:41;4.30;;;1.20;;
39356;SDS011;25077;50.302;18.996;2022-07-06T09:27:45;3.33;;;1.40;;
39356;SDS011;25077;50.302;18.996;2022-07-06T09:30:53;4.60;;;1.50;;
39356;SDS011;25077;50.302;18.996;2022-07-06T09:33:56;6.90;;;1.70;;
39356;SDS011;25077;50.302;18.996;2022-07-06T09:37:01;2.13;;;1.33;;
39356;SDS011;25077;50.302;18.996;2022-07-06T09:40:17;3.27;;;1.57;;
39356;SDS011;25077;50.302;18.996;2022-07-06T09:43:20;2.63;;;1.70;;
39356;SDS011;25077;50.302;18.996;2022-07-06T09:46:24;6.57;;;1.97;;
39356;SDS011;25077;50.302;18.996;2022-07-06T09:49:26;2.90;;;1.67;;
39356;SDS011;25077;50.302;18.996;2022-07-06T09:52:29;2.73;;;1.47;;
39356;SDS011;25077;50.302;18.996;2022-07-06T09:55:35;4.13;;;1.60;;
39356;SDS011;25077;50.302;18.996;2022-07-06T09:58:37;3.47;;;1.50;;
39356;SDS011;25077;50.302;18.996;2022-07-06T10:01:41;3.33;;;1.57;;
39356;SDS011;25077;50.302;18.996;2022-07-06T10:04:43;6.77;;;1.70;;
39356;SDS011;25077;50.302;18.996;2022-07-06T10:07:48;4.93;;;1.67;;
39356;SDS011;25077;50.302;18.996;2022-07-06T10:10:51;5.90;;;1.57;;
39356;SDS011;25077;50.302;18.996;2022-07-06T10:13:54;2.70;;;1.60;;
39356;SDS011;25077;50.302;18.996;2022-07-06T10:16:59;2.07;;;1.37;;
39356;SDS011;25077;50.302;18.996;2022-07-06T10:20:02;3.17;;;1.60;;
39356;SDS011;25077;50.302;18.996;2022-07-06T10:23:05;1.50;;;1.40;;
39356;SDS011;25077;50.302;18.996;2022-07-06T10:26:08;4.13;;;1.60;;
39356;SDS011;25077;50.302;18.996;2022-07-06T10:29:11;3.43;;;1.30;;
39356;SDS011;25077;50.302;18.996;2022-07-06T10:32:14;2.20;;;1.70;;
39356;SDS011;25077;50.302;18.996;2022-07-06T10:35:20;2.60;;;1.70;;
39356;SDS011;25077;50.302;18.996;2022-07-06T10:38:28;8.80;;;3.60;;
39356;SDS011;25077;50.302;18.996;2022-07-06T10:41:33;3.67;;;3.03;;
39356;SDS011;25077;50.302;18.996;2022-07-06T10:44:36;8.13;;;4.15;;
39356;SDS011;25077;50.302;18.996;2022-07-06T10:47:50;5.53;;;4.10;;
39356;SDS011;25077;50.302;18.996;2022-07-06T10:51:22;10.43;;;4.45;;
39356;SDS011;25077;50.302;18.996;2022-07-06T10:54:24;6.90;;;4.73;;
39356;SDS011;25077;50.302;18.996;2022-07-06T10:57:26;13.27;;;5.00;;
39356;SDS011;25077;50.302;18.996;2022-07-06T11:04:04;5.22;;;2.85;;
39356;SDS011;25077;50.302;18.996;2022-07-06T11:07:09;3.13;;;1.52;;
39356;SDS011;25077;50.302;18.996;2022-07-06T11:10:11;2.60;;;1.50;;
39356;SDS011;25077;50.302;18.996;2022-07-06T11:13:24;7.50;;;1.37;;
39356;SDS011;25077;50.302;18.996;2022-07-06T11:16:27;2.47;;;1.40;;
39356;SDS011;25077;50.302;18.996;2022-07-06T11:19:35;2.33;;;1.75;;
39356;SDS011;25077;50.302;18.996;2022-07-06T11:22:37;3.47;;;1.63;;
39356;SDS011;25077;50.302;18.996;2022-07-06T11:25:40;2.30;;;1.30;;
39356;SDS011;25077;50.302;18.996;2022-07-06T11:28:44;5.73;;;2.87;;
39356;SDS011;25077;50.302;18.996;2022-07-06T11:31:48;3.20;;;1.20;;
39356;SDS011;25077;50.302;18.996;2022-07-06T11:34:54;5.10;;;1.67;;
39356;SDS011;25077;50.302;18.996;2022-07-06T11:37:56;2.93;;;1.50;;
39356;SDS011;25077;50.302;18.996;2022-07-06T11:40:58;4.50;;;1.77;;
39356;SDS011;25077;50.302;18.996;2022-07-06T11:44:01;5.13;;;1.80;;
39356;SDS011;25077;50.302;18.996;2022-07-06T11:47:03;8.20;;;1.40;;
39356;SDS011;25077;50.302;18.996;2022-07-06T11:50:08;1.70;;;1.30;;
39356;SDS011;25077;50.302;18.996;2022-07-06T11:53:10;4.27;;;1.53;;
39356;SDS011;25077;50.302;18.996;2022-07-06T11:56:16;3.13;;;1.47;;
39356;SDS011;25077;50.302;18.996;2022-07-06T11:59:22;3.10;;;1.75;;
39356;SDS011;25077;50.302;18.996;2022-07-06T12:02:25;3.00;;;1.23;;
39356;SDS011;25077;50.302;18.996;2022-07-06T12:05:31;1.73;;;1.60;;
39356;SDS011;25077;50.302;18.996;2022-07-06T12:08:40;3.55;;;2.20;;
39356;SDS011;25077;50.302;18.996;2022-07-06T12:11:44;3.65;;;1.70;;
39356;SDS011;25077;50.302;18.996;2022-07-06T12:14:47;27.17;;;4.57;;
39356;SDS011;25077;50.302;18.996;2022-07-06T12:17:54;6.22;;;1.48;;
39356;SDS011;25077;50.302;18.996;2022-07-06T12:20:57;7.45;;;2.17;;
39356;SDS011;25077;50.302;18.996;2022-07-06T12:23:59;5.47;;;1.55;;
39356;SDS011;25077;50.302;18.996;2022-07-06T12:27:09;7.88;;;2.55;;
39356;SDS011;25077;50.302;18.996;2022-07-06T12:30:12;9.05;;;4.15;;
39356;SDS011;25077;50.302;18.996;2022-07-06T12:33:15;6.53;;;3.40;;
39356;SDS011;25077;50.302;18.996;2022-07-06T12:36:20;4.55;;;2.08;;
39356;SDS011;25077;50.302;18.996;2022-07-06T12:39:22;2.22;;;1.63;;
39356;SDS011;25077;50.302;18.996;2022-07-06T12:42:25;6.28;;;1.70;;
39356;SDS011;25077;50.302;18.996;2022-07-06T12:45:28;8.05;;;2.55;;
39356;SDS011;25077;50.302;18.996;2022-07-06T12:48:31;10.02;;;2.65;;
39356;SDS011;25077;50.302;18.996;2022-07-06T12:51:53;4.13;;;1.70;;
39356;SDS011;25077;50.302;18.996;2022-07-06T12:54:59;2.05;;;1.50;;
39356;SDS011;25077;50.302;18.996;2022-07-06T12:58:01;23.95;;;4.40;;
39356;SDS011;25077;50.302;18.996;2022-07-06T13:01:03;5.50;;;1.50;;
39356;SDS011;25077;50.302;18.996;2022-07-06T13:04:06;2.53;;;1.90;;
39356;SDS011;25077;50.302;18.996;2022-07-06T13:07:14;4.25;;;1.95;;
39356;SDS011;25077;50.302;18.996;2022-07-06T13:10:20;3.15;;;1.30;;
39356;SDS011;25077;50.302;18.996;2022-07-06T13:13:22;4.68;;;1.40;;
39356;SDS011;25077;50.302;18.996;2022-07-06T13:16:23;2.63;;;1.85;;
39356;SDS011;25077;50.302;18.996;2022-07-06T13:19:30;8.38;;;1.50;;
39356;SDS011;25077;50.302;18.996;2022-07-06T13:22:34;2.60;;;1.27;;
39356;SDS011;25077;50.302;18.996;2022-07-06T13:25:36;4.30;;;1.90;;
39356;SDS011;25077;50.302;18.996;2022-07-06T13:28:38;4.47;;;2.45;;
39356;SDS011;25077;50.302;18.996;2022-07-06T13:31:40;3.75;;;1.75;;
39356;SDS011;25077;50.302;18.996;2022-07-06T13:34:42;5.75;;;1.60;;
39356;SDS011;25077;50.302;18.996;2022-07-06T13:37:45;5.10;;;1.80;;
39356;SDS011;25077;50.302;18.996;2022-07-06T13:40:49;4.63;;;1.63;;
39356;SDS011;25077;50.302;18.996;2022-07-06T13:43:51;1.33;;;1.10;;
39356;SDS011;25077;50.302;18.996;2022-07-06T13:46:53;4.70;;;1.35;;
39356;SDS011;25077;50.302;18.996;2022-07-06T13:49:55;1.35;;;1.10;;
39356;SDS011;25077;50.302;18.996;2022-07-06T13:52:58;1.92;;;1.10;;
39356;SDS011;25077;50.302;18.996;2022-07-06T13:56:00;1.77;;;1.23;;
39356;SDS011;25077;50.302;18.996;2022-07-06T13:59:02;1.92;;;1.35;;
39356;SDS011;25077;50.302;18.996;2022-07-06T14:02:04;3.15;;;1.70;;
39356;SDS011;25077;50.302;18.996;2022-07-06T14:05:06;2.90;;;1.50;;
39356;SDS011;25077;50.302;18.996;2022-07-06T14:08:10;2.88;;;1.63;;
39356;SDS011;25077;50.302;18.996;2022-07-06T14:11:12;2.95;;;1.40;;
39356;SDS011;25077;50.302;18.996;2022-07-06T14:14:15;5.43;;;1.50;;
39356;SDS011;25077;50.302;18.996;2022-07-06T14:17:17;5.72;;;1.80;;
39356;SDS011;25077;50.302;18.996;2022-07-06T14:20:19;2.88;;;1.10;;
39356;SDS011;25077;50.302;18.996;2022-07-06T14:23:23;10.38;;;2.08;;
39356;SDS011;25077;50.302;18.996;2022-07-06T14:26:25;2.42;;;1.30;;
39356;SDS011;25077;50.302;18.996;2022-07-06T14:29:27;0.85;;;0.80;;
39356;SDS011;25077;50.302;18.996;2022-07-06T14:32:29;2.90;;;1.00;;
39356;SDS011;25077;50.302;18.996;2022-07-06T14:35:31;1.92;;;1.17;;
39356;SDS011;25077;50.302;18.996;2022-07-06T14:38:34;1.13;;;0.90;;
39356;SDS011;25077;50.302;18.996;2022-07-06T14:41:36;1.63;;;1.13;;
39356;SDS011;25077;50.302;18.996;2022-07-06T14:44:39;3.28;;;1.15;;
39356;SDS011;25077;50.302;18.996;2022-07-06T14:47:41;1.50;;;1.08;;
39356;SDS011;25077;50.302;18.996;2022-07-06T14:50:43;2.05;;;0.90;;
39356;SDS011;25077;50.302;18.996;2022-07-06T14:53:46;3.85;;;1.10;;
39356;SDS011;25077;50.302;18.996;2022-07-06T14:56:48;3.42;;;1.30;;
39356;SDS011;25077;50.302;18.996;2022-07-06T14:59:50;12.13;;;1.38;;
39356;SDS011;25077;50.302;18.996;2022-07-06T15:02:51;8.52;;;1.63;;
39356;SDS011;25077;50.302;18.996;2022-07-06T15:05:54;3.03;;;1.70;;
39356;SDS011;25077;50.302;18.996;2022-07-06T15:08:57;8.15;;;1.40;;
39356;SDS011;25077;50.302;18.996;2022-07-06T15:12:01;7.38;;;1.50;;
39356;SDS011;25077;50.302;18.996;2022-07-06T15:15:04;5.97;;;1.30;;
39356;SDS011;25077;50.302;18.996;2022-07-06T15:18:06;2.92;;;1.35;;
39356;SDS011;25077;50.302;18.996;2022-07-06T15:21:08;2.42;;;1.05;;
39356;SDS011;25077;50.302;18.996;2022-07-06T15:24:12;7.45;;;1.27;;
39356;SDS011;25077;50.302;18.996;2022-07-06T15:27:14;3.88;;;1.40;;
39356;SDS011;25077;50.302;18.996;2022-07-06T15:30:16;7.00;;;1.40;;
39356;SDS011;25077;50.302;18.996;2022-07-06T15:33:18;3.10;;;1.13;;
39356;SDS011;25077;50.302;18.996;2022-07-06T15:36:21;3.00;;;1.25;;
39356;SDS011;25077;50.302;18.996;2022-07-06T15:39:25;5.57;;;1.65;;
39356;SDS011;25077;50.302;18.996;2022-07-06T15:42:27;4.45;;;1.40;;
39356;SDS011;25077;50.302;18.996;2022-07-06T15:45:29;6.05;;;1.50;;
39356;SDS011;25077;50.302;18.996;2022-07-06T15:48:31;3.58;;;1.50;;
39356;SDS011;25077;50.302;18.996;2022-07-06T15:51:34;3.17;;;1.30;;
39356;SDS011;25077;50.302;18.996;2022-07-06T15:54:37;5.50;;;1.52;;
39356;SDS011;25077;50.302;18.996;2022-07-06T15:57:39;3.75;;;1.30;;
39356;SDS011;25077;50.302;18.996;2022-07-06T16:00:41;5.90;;;1.40;;
39356;SDS011;25077;50.302;18.996;2022-07-06T16:03:44;8.57;;;1.63;;
39356;SDS011;25077;50.302;18.996;2022-07-06T16:06:46;3.92;;;1.27;;
39356;SDS011;25077;50.302;18.996;2022-07-06T16:09:49;3.20;;;1.60;;
39356;SDS011;25077;50.302;18.996;2022-07-06T16:12:51;4.15;;;1.38;;
39356;SDS011;25077;50.302;18.996;2022-07-06T16:15:53;3.97;;;1.30;;
39356;SDS011;25077;50.302;18.996;2022-07-06T16:18:55;4.10;;;1.30;;
39356;SDS011;25077;50.302;18.996;2022-07-06T16:21:57;2.25;;;1.38;;
39356;SDS011;25077;50.302;18.996;2022-07-06T16:25:00;6.32;;;1.20;;
39356;SDS011;25077;50.302;18.996;2022-07-06T16:28:03;2.97;;;1.30;;
39356;SDS011;25077;50.302;18.996;2022-07-06T16:31:05;2.80;;;1.40;;
39356;SDS011;25077;50.302;18.996;2022-07-06T16:34:07;3.08;;;1.20;;
39356;SDS011;25077;50.302;18.996;2022-07-06T16:37:09;3.47;;;1.67;;
39356;SDS011;25077;50.302;18.996;2022-07-06T16:40:13;2.33;;;1.35;;
39356;SDS011;25077;50.302;18.996;2022-07-06T16:43:15;2.90;;;1.52;;
39356;SDS011;25077;50.302;18.996;2022-07-06T16:46:17;4.38;;;1.38;;
39356;SDS011;25077;50.302;18.996;2022-07-06T16:49:19;2.45;;;1.25;;
39356;SDS011;25077;50.302;18.996;2022-07-06T16:52:21;3.22;;;1.35;;
39356;SDS011;25077;50.302;18.996;2022-07-06T16:55:26;5.18;;;1.52;;
39356;SDS011;25077;50.302;18.996;2022-07-06T16:58:28;2.33;;;1.08;;
39356;SDS011;25077;50.302;18.996;2022-07-06T17:01:30;4.60;;;1.20;;
39356;SDS011;25077;50.302;18.996;2022-07-06T17:04:32;2.40;;;1.25;;
39356;SDS011;25077;50.302;18.996;2022-07-06T17:07:34;1.83;;;1.10;;
39356;SDS011;25077;50.302;18.996;2022-07-06T17:10:38;3.95;;;1.67;;
39356;SDS011;25077;50.302;18.996;2022-07-06T17:13:40;4.97;;;1.40;;
39356;SDS011;25077;50.302;18.996;2022-07-06T17:16:42;1.92;;;1.30;;
39356;SDS011;25077;50.302;18.996;2022-07-06T17:19:44;4.57;;;1.70;;
39356;SDS011;25077;50.302;18.996;2022-07-06T17:22:46;3.67;;;1.30;;
39356;SDS011;25077;50.302;18.996;2022-07-06T17:25:49;3.60;;;1.42;;
39356;SDS011;25077;50.302;18.996;2022-07-06T17:28:51;1.65;;;1.10;;
39356;SDS011;25077;50.302;18.996;2022-07-06T17:31:56;4.45;;;1.55;;
39356;SDS011;25077;50.302;18.996;2022-07-06T17:34:58;2.03;;;1.42;;
39356;SDS011;25077;50.302;18.996;2022-07-06T17:38:00;3.78;;;1.95;;
39356;SDS011;25077;50.302;18.996;2022-07-06T17:41:04;4.32;;;1.73;;
39356;SDS011;25077;50.302;18.996;2022-07-06T17:44:06;5.95;;;1.60;;
39356;SDS011;25077;50.302;18.996;2022-07-06T17:47:08;4.45;;;1.55;;
39356;SDS011;25077;50.302;18.996;2022-07-06T17:50:10;2.88;;;1.60;;
39356;SDS011;25077;50.302;18.996;2022-07-06T17:53:12;5.20;;;2.08;;
39356;SDS011;25077;50.302;18.996;2022-07-06T17:56:16;3.85;;;1.95;;